sensor_id;sensor_type;location;lat;lon;timestamp;temperature;humidity
27200;DHT22;14714;48.106;11.546;2023-08-20T00:02:18;19.30;99.90
27200;DHT22;14714;48.106;11.546;2023-08-20T00:04:46;19.20;99.90
27200;DHT22;14714;48.106;11.546;2023-08-20T00:07:13;19.20;99.90
27200;DHT22;14714;48.106;11.546;2023-08-20T00:09:43;19.10;99.90
27200;DHT22;14714;48.106;11.546;2023-08-20T00:12:09;19.10;99.90
27200;DHT22;14714;48.106;11.546;2023-08-20T00:14:56;19.00;99.90
27200;DHT22;14714;48.106;11.546;2023-08-20T00:17:25;19.00;99.90
27200;DHT22;14714;48.106;11.546;2023-08-20T00:19:55;18.90;99.90
27200;DHT22;14714;48.106;11.546;2023-08-20T00:22:22;18.90;99.90
27200;DHT22;14714;48.106;11.546;2023-08-20T00:24:50;18.80;99.90
27200;DHT22;14714;48.106;11.546;2023-08-20T00:27:18;18.80;99.90
27200;DHT22;14714;48.106;11.546;2023-08-20T00:29:45;18.80;99.90
27200;DHT22;14714;48.106;11.546;2023-08-20T00:32:12;18.70;99.90
27200;DHT22;14714;48.106;11.546;2023-08-20T00:34:39;18.70;99.90
27200;DHT22;14714;48.106;11.546;2023-08-20T00:37:06;18.70;99.90
27200;DHT22;14714;48.106;11.546;2023-08-20T00:39:33;18.60;99.90
27200;DHT22;14714;48.106;11.546;2023-08-20T00:42:00;18.60;99.90
27200;DHT22;14714;48.106;11.546;2023-08-20T00:44:27;18.60;99.90
27200;DHT22;14714;48.106;11.546;2023-08-20T00:46:54;18.60;99.90
27200;DHT22;14714;48.106;11.546;2023-08-20T00:49:21;18.60;99.90
27200;DHT22;14714;48.106;11.546;2023-08-20T00:51:48;18.60;99.90
27200;DHT22;14714;48.106;11.546;2023-08-20T00:54:16;18.60;99.90
27200;DHT22;14714;48.106;11.546;2023-08-20T00:56:43;18.50;99.90
27200;DHT22;14714;48.106;11.546;2023-08-20T00:59:10;18.50;99.90
27200;DHT22;14714;48.106;11.546;2023-08-20T01:01:37;18.50;99.90
27200;DHT22;14714;48.106;11.546;2023-08-20T01:04:04;18.50;99.90
27200;DHT22;14714;48.106;11.546;2023-08-20T01:06:50;18.50;99.90
27200;DHT22;14714;48.106;11.546;2023-08-20T01:11:55;18.50;99.90
27200;DHT22;14714;48.106;11.546;2023-08-20T01:14:22;18.50;99.90
27200;DHT22;14714;48.106;11.546;2023-08-20T01:16:49;18.40;99.90
27200;DHT22;14714;48.106;11.546;2023-08-20T01:19:18;18.40;99.90
27200;DHT22;14714;48.106;11.546;2023-08-20T01:21:55;18.40;99.90
27200;DHT22;14714;48.106;11.546;2023-08-20T01:26:56;18.40;99.90
27200;DHT22;14714;48.106;11.546;2023-08-20T01:29:27;18.40;99.90
27200;DHT22;14714;48.106;11.546;2023-08-20T01:31:54;18.40;99.90
27200;DHT22;14714;48.106;11.546;2023-08-20T01:34:21;18.40;99.90
27200;DHT22;14714;48.106;11.546;2023-08-20T01:36:48;18.40;99.90
27200;DHT22;14714;48.106;11.546;2023-08-20T01:39:14;18.30;99.90
27200;DHT22;14714;48.106;11.546;2023-08-20T01:41:41;18.30;99.90
27200;DHT22;14714;48.106;11.546;2023-08-20T01:44:08;18.30;99.90
27200;DHT22;14714;48.106;11.546;2023-08-20T01:46:35;18.20;99.90
27200;DHT22;14714;48.106;11.546;2023-08-20T01:49:02;18.20;99.90
27200;DHT22;14714;48.106;11.546;2023-08-20T01:51:28;18.20;99.90
27200;DHT22;14714;48.106;11.546;2023-08-20T01:53:55;18.20;99.90
27200;DHT22;14714;48.106;11.546;2023-08-20T01:56:22;18.10;99.90
27200;DHT22;14714;48.106;11.546;2023-08-20T01:58:49;18.10;99.90
27200;DHT22;14714;48.106;11.546;2023-08-20T02:01:15;18.00;99.90
27200;DHT22;14714;48.106;11.546;2023-08-20T02:03:42;18.00;99.90
27200;DHT22;14714;48.106;11.546;2023-08-20T02:06:09;18.00;99.90
27200;DHT22;14714;48.106;11.546;2023-08-20T02:08:36;18.00;99.90
27200;DHT22;14714;48.106;11.546;2023-08-20T02:11:03;17.90;99.90
27200;DHT22;14714;48.106;11.546;2023-08-20T02:13:30;17.90;99.90
27200;DHT22;14714;48.106;11.546;2023-08-20T02:15:58;17.90;99.90
27200;DHT22;14714;48.106;11.546;2023-08-20T02:18:25;17.80;99.90
27200;DHT22;14714;48.106;11.546;2023-08-20T02:20:51;17.80;99.90
27200;DHT22;14714;48.106;11.546;2023-08-20T02:23:18;17.80;99.90
27200;DHT22;14714;48.106;11.546;2023-08-20T02:25:45;17.80;99.90
27200;DHT22;14714;48.106;11.546;2023-08-20T02:28:12;17.70;99.90
27200;DHT22;14714;48.106;11.546;2023-08-20T02:30:40;17.70;99.90
27200;DHT22;14714;48.106;11.546;2023-08-20T02:33:07;17.70;99.90
27200;DHT22;14714;48.106;11.546;2023-08-20T02:35:34;17.70;99.90
27200;DHT22;14714;48.106;11.546;2023-08-20T02:38:01;17.60;99.90
27200;DHT22;14714;48.106;11.546;2023-08-20T02:40:27;17.60;99.90
27200;DHT22;14714;48.106;11.546;2023-08-20T02:42:54;17.60;99.90
27200;DHT22;14714;48.106;11.546;2023-08-20T02:45:21;17.50;99.90
27200;DHT22;14714;48.106;11.546;2023-08-20T02:47:48;17.50;99.90
27200;DHT22;14714;48.106;11.546;2023-08-20T02:50:15;17.50;99.90
27200;DHT22;14714;48.106;11.546;2023-08-20T02:52:43;17.50;99.90
27200;DHT22;14714;48.106;11.546;2023-08-20T02:55:10;17.50;99.90
27200;DHT22;14714;48.106;11.546;2023-08-20T02:57:36;17.40;99.90
27200;DHT22;14714;48.106;11.546;2023-08-20T03:00:04;17.40;99.90
27200;DHT22;14714;48.106;11.546;2023-08-20T03:02:31;17.40;99.90
27200;DHT22;14714;48.106;11.546;2023-08-20T03:04:58;17.40;99.90
27200;DHT22;14714;48.106;11.546;2023-08-20T03:07:24;17.30;99.90
27200;DHT22;14714;48.106;11.546;2023-08-20T03:09:51;17.30;99.90
27200;DHT22;14714;48.106;11.546;2023-08-20T03:12:18;17.30;99.90
27200;DHT22;14714;48.106;11.546;2023-08-20T03:14:45;17.30;99.90
27200;DHT22;14714;48.106;11.546;2023-08-20T03:17:11;17.30;99.90
27200;DHT22;14714;48.106;11.546;2023-08-20T03:19:47;17.20;99.90
27200;DHT22;14714;48.106;11.546;2023-08-20T03:22:19;17.20;99.90
27200;DHT22;14714;48.106;11.546;2023-08-20T03:24:46;17.20;99.90
27200;DHT22;14714;48.106;11.546;2023-08-20T03:27:13;17.20;99.90
27200;DHT22;14714;48.106;11.546;2023-08-20T03:29:40;17.20;99.90
27200;DHT22;14714;48.106;11.546;2023-08-20T03:32:06;17.10;99.90
27200;DHT22;14714;48.106;11.546;2023-08-20T03:34:33;17.10;99.90
27200;DHT22;14714;48.106;11.546;2023-08-20T03:37:00;17.10;99.90
27200;DHT22;14714;48.106;11.546;2023-08-20T03:39:27;17.10;99.90
27200;DHT22;14714;48.106;11.546;2023-08-20T03:41:53;17.10;99.90
27200;DHT22;14714;48.106;11.546;2023-08-20T03:44:20;17.10;99.90
27200;DHT22;14714;48.106;11.546;2023-08-20T03:46:47;17.00;99.90
27200;DHT22;14714;48.106;11.546;2023-08-20T03:49:14;17.10;99.90
27200;DHT22;14714;48.106;11.546;2023-08-20T03:51:41;17.10;99.90
27200;DHT22;14714;48.106;11.546;2023-08-20T03:54:09;17.10;99.90
27200;DHT22;14714;48.106;11.546;2023-08-20T03:56:36;17.10;99.90
27200;DHT22;14714;48.106;11.546;2023-08-20T03:59:03;17.00;99.90
27200;DHT22;14714;48.106;11.546;2023-08-20T04:01:30;17.00;99.90
27200;DHT22;14714;48.106;11.546;2023-08-20T04:03:58;17.00;99.90
27200;DHT22;14714;48.106;11.546;2023-08-20T04:06:24;17.00;99.90
27200;DHT22;14714;48.106;11.546;2023-08-20T04:08:51;17.00;99.90
27200;DHT22;14714;48.106;11.546;2023-08-20T04:11:19;17.00;99.90
27200;DHT22;14714;48.106;11.546;2023-08-20T04:13:46;17.00;99.90
27200;DHT22;14714;48.106;11.546;2023-08-20T04:16:12;17.00;99.90
27200;DHT22;14714;48.106;11.546;2023-08-20T04:18:40;17.00;99.90
27200;DHT22;14714;48.106;11.546;2023-08-20T04:21:07;17.00;99.90
27200;DHT22;14714;48.106;11.546;2023-08-20T04:23:33;17.00;99.90
27200;DHT22;14714;48.106;11.546;2023-08-20T04:26:00;17.10;99.90
27200;DHT22;14714;48.106;11.546;2023-08-20T04:28:27;17.00;99.90
27200;DHT22;14714;48.106;11.546;2023-08-20T04:30:54;17.10;99.90
27200;DHT22;14714;48.106;11.546;2023-08-20T04:33:23;17.00;99.90
27200;DHT22;14714;48.106;11.546;2023-08-20T04:35:49;17.00;99.90
27200;DHT22;14714;48.106;11.546;2023-08-20T04:38:20;17.10;99.90
27200;DHT22;14714;48.106;11.546;2023-08-20T04:40:47;17.10;99.90
27200;DHT22;14714;48.106;11.546;2023-08-20T04:43:14;17.10;99.90
27200;DHT22;14714;48.106;11.546;2023-08-20T04:45:41;17.10;99.90
27200;DHT22;14714;48.106;11.546;2023-08-20T04:48:08;17.10;99.90
27200;DHT22;14714;48.106;11.546;2023-08-20T04:50:35;17.10;99.90
27200;DHT22;14714;48.106;11.546;2023-08-20T04:53:02;17.10;99.90
27200;DHT22;14714;48.106;11.546;2023-08-20T04:55:29;17.20;99.90
27200;DHT22;14714;48.106;11.546;2023-08-20T04:57:55;17.20;99.90
27200;DHT22;14714;48.106;11.546;2023-08-20T05:00:22;17.20;99.90
27200;DHT22;14714;48.106;11.546;2023-08-20T05:02:49;17.20;99.90
27200;DHT22;14714;48.106;11.546;2023-08-20T05:05:16;17.30;99.90
27200;DHT22;14714;48.106;11.546;2023-08-20T05:07:43;17.30;99.90
27200;DHT22;14714;48.106;11.546;2023-08-20T05:10:10;17.40;99.90
27200;DHT22;14714;48.106;11.546;2023-08-20T05:12:37;17.40;99.90
27200;DHT22;14714;48.106;11.546;2023-08-20T05:15:04;17.40;99.90
27200;DHT22;14714;48.106;11.546;2023-08-20T05:17:31;17.50;99.90
27200;DHT22;14714;48.106;11.546;2023-08-20T05:19:58;17.50;99.90
27200;DHT22;14714;48.106;11.546;2023-08-20T05:22:25;17.60;99.90
27200;DHT22;14714;48.106;11.546;2023-08-20T05:24:51;17.70;99.90
27200;DHT22;14714;48.106;11.546;2023-08-20T05:27:18;18.00;99.90
27200;DHT22;14714;48.106;11.546;2023-08-20T05:29:45;18.80;99.90
27200;DHT22;14714;48.106;11.546;2023-08-20T05:32:12;19.50;99.90
27200;DHT22;14714;48.106;11.546;2023-08-20T05:34:39;20.30;99.90
27200;DHT22;14714;48.106;11.546;2023-08-20T05:37:05;21.70;99.90
27200;DHT22;14714;48.106;11.546;2023-08-20T05:39:36;23.10;99.90
27200;DHT22;14714;48.106;11.546;2023-08-20T05:42:03;24.60;99.90
27200;DHT22;14714;48.106;11.546;2023-08-20T05:44:30;26.20;99.90
27200;DHT22;14714;48.106;11.546;2023-08-20T05:46:58;27.70;99.90
27200;DHT22;14714;48.106;11.546;2023-08-20T05:49:25;29.30;99.90
27200;DHT22;14714;48.106;11.546;2023-08-20T05:51:54;30.80;96.50
27200;DHT22;14714;48.106;11.546;2023-08-20T05:54:21;32.20;90.90
27200;DHT22;14714;48.106;11.546;2023-08-20T05:56:48;33.40;80.90
27200;DHT22;14714;48.106;11.546;2023-08-20T05:59:14;34.50;69.50
27200;DHT22;14714;48.106;11.546;2023-08-20T06:01:41;35.60;62.80
27200;DHT22;14714;48.106;11.546;2023-08-20T06:04:09;36.50;56.90
27200;DHT22;14714;48.106;11.546;2023-08-20T06:06:36;37.40;55.60
27200;DHT22;14714;48.106;11.546;2023-08-20T06:09:03;38.20;51.90
27200;DHT22;14714;48.106;11.546;2023-08-20T06:11:35;38.90;47.70
27200;DHT22;14714;48.106;11.546;2023-08-20T06:14:02;39.60;45.30
27200;DHT22;14714;48.106;11.546;2023-08-20T06:16:29;40.30;43.90
27200;DHT22;14714;48.106;11.546;2023-08-20T06:18:57;41.00;41.50
27200;DHT22;14714;48.106;11.546;2023-08-20T06:21:24;41.60;39.30
27200;DHT22;14714;48.106;11.546;2023-08-20T06:23:50;42.20;39.20
27200;DHT22;14714;48.106;11.546;2023-08-20T06:26:17;42.80;37.40
27200;DHT22;14714;48.106;11.546;2023-08-20T06:28:44;43.30;36.30
27200;DHT22;14714;48.106;11.546;2023-08-20T06:31:11;43.90;34.70
27200;DHT22;14714;48.106;11.546;2023-08-20T06:33:37;44.30;34.30
27200;DHT22;14714;48.106;11.546;2023-08-20T06:36:04;44.80;31.90
27200;DHT22;14714;48.106;11.546;2023-08-20T06:38:31;45.10;32.40
27200;DHT22;14714;48.106;11.546;2023-08-20T06:40:58;45.50;31.10
27200;DHT22;14714;48.106;11.546;2023-08-20T06:43:25;44.90;31.80
27200;DHT22;14714;48.106;11.546;2023-08-20T06:45:51;44.80;32.10
27200;DHT22;14714;48.106;11.546;2023-08-20T06:48:19;45.10;30.40
27200;DHT22;14714;48.106;11.546;2023-08-20T06:50:48;45.30;30.50
27200;DHT22;14714;48.106;11.546;2023-08-20T06:53:15;45.60;30.50
27200;DHT22;14714;48.106;11.546;2023-08-20T06:55:42;46.00;30.00
27200;DHT22;14714;48.106;11.546;2023-08-20T06:58:08;46.40;30.10
27200;DHT22;14714;48.106;11.546;2023-08-20T07:00:35;46.80;30.00
27200;DHT22;14714;48.106;11.546;2023-08-20T07:03:02;47.10;29.20
27200;DHT22;14714;48.106;11.546;2023-08-20T07:05:30;47.50;28.70
27200;DHT22;14714;48.106;11.546;2023-08-20T07:07:56;47.80;28.50
27200;DHT22;14714;48.106;11.546;2023-08-20T07:10:23;48.10;27.70
27200;DHT22;14714;48.106;11.546;2023-08-20T07:12:50;48.30;27.40
27200;DHT22;14714;48.106;11.546;2023-08-20T07:15:17;48.40;27.20
27200;DHT22;14714;48.106;11.546;2023-08-20T07:17:43;48.60;26.80
27200;DHT22;14714;48.106;11.546;2023-08-20T07:20:12;48.70;27.00
27200;DHT22;14714;48.106;11.546;2023-08-20T07:22:39;48.90;26.50
27200;DHT22;14714;48.106;11.546;2023-08-20T07:25:06;49.10;27.00
27200;DHT22;14714;48.106;11.546;2023-08-20T07:27:32;49.30;27.10
27200;DHT22;14714;48.106;11.546;2023-08-20T07:30:00;49.50;26.30
27200;DHT22;14714;48.106;11.546;2023-08-20T07:32:27;49.60;25.90
27200;DHT22;14714;48.106;11.546;2023-08-20T07:34:53;49.50;25.50
27200;DHT22;14714;48.106;11.546;2023-08-20T07:37:20;49.50;26.50
27200;DHT22;14714;48.106;11.546;2023-08-20T07:39:47;49.70;24.90
27200;DHT22;14714;48.106;11.546;2023-08-20T07:42:14;49.80;26.40
27200;DHT22;14714;48.106;11.546;2023-08-20T07:44:41;49.90;24.90
27200;DHT22;14714;48.106;11.546;2023-08-20T07:47:07;49.90;25.10
27200;DHT22;14714;48.106;11.546;2023-08-20T07:49:34;50.00;24.80
27200;DHT22;14714;48.106;11.546;2023-08-20T07:52:01;49.90;24.60
27200;DHT22;14714;48.106;11.546;2023-08-20T07:54:28;49.90;24.90
27200;DHT22;14714;48.106;11.546;2023-08-20T07:56:55;49.80;24.60
27200;DHT22;14714;48.106;11.546;2023-08-20T07:59:22;49.70;25.30
27200;DHT22;14714;48.106;11.546;2023-08-20T08:01:49;49.40;25.20
27200;DHT22;14714;48.106;11.546;2023-08-20T08:04:16;49.40;24.70
27200;DHT22;14714;48.106;11.546;2023-08-20T08:06:43;49.50;25.20
27200;DHT22;14714;48.106;11.546;2023-08-20T08:09:19;49.60;25.50
27200;DHT22;14714;48.106;11.546;2023-08-20T08:11:47;49.80;25.50
27200;DHT22;14714;48.106;11.546;2023-08-20T08:14:14;50.00;24.80
27200;DHT22;14714;48.106;11.546;2023-08-20T08:16:41;50.20;24.20
27200;DHT22;14714;48.106;11.546;2023-08-20T08:19:08;50.40;23.80
27200;DHT22;14714;48.106;11.546;2023-08-20T08:21:35;50.50;23.60
27200;DHT22;14714;48.106;11.546;2023-08-20T08:24:02;50.70;24.10
27200;DHT22;14714;48.106;11.546;2023-08-20T08:26:29;50.90;23.30
27200;DHT22;14714;48.106;11.546;2023-08-20T08:28:56;50.80;23.30
27200;DHT22;14714;48.106;11.546;2023-08-20T08:31:23;50.60;23.30
27200;DHT22;14714;48.106;11.546;2023-08-20T08:33:49;50.70;23.60
27200;DHT22;14714;48.106;11.546;2023-08-20T08:36:16;50.60;24.20
27200;DHT22;14714;48.106;11.546;2023-08-20T08:38:43;50.50;23.30
27200;DHT22;14714;48.106;11.546;2023-08-20T08:41:11;50.20;22.90
27200;DHT22;14714;48.106;11.546;2023-08-20T08:43:38;49.90;23.80
27200;DHT22;14714;48.106;11.546;2023-08-20T08:46:06;49.80;23.30
27200;DHT22;14714;48.106;11.546;2023-08-20T08:48:34;49.70;23.80
27200;DHT22;14714;48.106;11.546;2023-08-20T08:51:01;49.60;23.90
27200;DHT22;14714;48.106;11.546;2023-08-20T08:53:28;49.70;23.20
27200;DHT22;14714;48.106;11.546;2023-08-20T08:55:57;49.20;23.40
27200;DHT22;14714;48.106;11.546;2023-08-20T08:58:23;49.00;24.50
27200;DHT22;14714;48.106;11.546;2023-08-20T09:00:50;48.50;23.70
27200;DHT22;14714;48.106;11.546;2023-08-20T09:03:17;48.20;25.60
27200;DHT22;14714;48.106;11.546;2023-08-20T09:05:47;48.30;24.70
27200;DHT22;14714;48.106;11.546;2023-08-20T09:08:27;48.40;24.80
27200;DHT22;14714;48.106;11.546;2023-08-20T09:10:56;48.20;23.80
27200;DHT22;14714;48.106;11.546;2023-08-20T09:13:31;47.50;24.70
27200;DHT22;14714;48.106;11.546;2023-08-20T09:15:58;47.50;26.80
27200;DHT22;14714;48.106;11.546;2023-08-20T09:18:25;47.50;25.80
27200;DHT22;14714;48.106;11.546;2023-08-20T09:20:54;47.60;24.90
27200;DHT22;14714;48.106;11.546;2023-08-20T09:23:21;47.90;24.80
27200;DHT22;14714;48.106;11.546;2023-08-20T09:25:47;47.90;24.20
27200;DHT22;14714;48.106;11.546;2023-08-20T09:28:14;47.20;24.70
27200;DHT22;14714;48.106;11.546;2023-08-20T09:30:54;47.10;25.00
27200;DHT22;14714;48.106;11.546;2023-08-20T09:33:21;46.70;25.20
27200;DHT22;14714;48.106;11.546;2023-08-20T09:35:51;46.50;25.40
27200;DHT22;14714;48.106;11.546;2023-08-20T09:38:19;46.10;25.50
27200;DHT22;14714;48.106;11.546;2023-08-20T09:40:49;45.90;26.40
27200;DHT22;14714;48.106;11.546;2023-08-20T09:43:16;45.90;25.10
27200;DHT22;14714;48.106;11.546;2023-08-20T09:45:43;45.90;25.50
27200;DHT22;14714;48.106;11.546;2023-08-20T09:48:10;45.90;26.30
27200;DHT22;14714;48.106;11.546;2023-08-20T09:50:38;45.90;24.50
27200;DHT22;14714;48.106;11.546;2023-08-20T09:53:06;45.30;25.20
27200;DHT22;14714;48.106;11.546;2023-08-20T09:55:35;45.30;25.70
27200;DHT22;14714;48.106;11.546;2023-08-20T09:58:02;45.40;25.60
27200;DHT22;14714;48.106;11.546;2023-08-20T10:00:29;45.40;25.90
27200;DHT22;14714;48.106;11.546;2023-08-20T10:02:56;45.70;26.70
27200;DHT22;14714;48.106;11.546;2023-08-20T10:05:24;45.90;26.50
27200;DHT22;14714;48.106;11.546;2023-08-20T10:07:51;46.00;25.40
27200;DHT22;14714;48.106;11.546;2023-08-20T10:10:18;45.70;25.70
27200;DHT22;14714;48.106;11.546;2023-08-20T10:12:45;45.80;24.70
27200;DHT22;14714;48.106;11.546;2023-08-20T10:15:12;45.80;24.80
27200;DHT22;14714;48.106;11.546;2023-08-20T10:17:41;45.90;24.80
27200;DHT22;14714;48.106;11.546;2023-08-20T10:20:08;45.90;26.00
27200;DHT22;14714;48.106;11.546;2023-08-20T10:22:37;45.70;24.50
27200;DHT22;14714;48.106;11.546;2023-08-20T10:25:05;45.40;25.70
27200;DHT22;14714;48.106;11.546;2023-08-20T10:27:33;45.30;26.60
27200;DHT22;14714;48.106;11.546;2023-08-20T10:30:01;45.30;25.80
27200;DHT22;14714;48.106;11.546;2023-08-20T10:32:43;45.30;26.50
27200;DHT22;14714;48.106;11.546;2023-08-20T10:35:11;45.20;25.20
27200;DHT22;14714;48.106;11.546;2023-08-20T10:37:38;44.70;25.90
27200;DHT22;14714;48.106;11.546;2023-08-20T10:40:07;44.40;26.70
27200;DHT22;14714;48.106;11.546;2023-08-20T10:42:40;43.90;26.70
27200;DHT22;14714;48.106;11.546;2023-08-20T10:45:08;43.50;26.50
27200;DHT22;14714;48.106;11.546;2023-08-20T10:47:36;43.00;26.50
27200;DHT22;14714;48.106;11.546;2023-08-20T10:50:03;42.60;27.90
27200;DHT22;14714;48.106;11.546;2023-08-20T10:52:30;42.10;28.60
27200;DHT22;14714;48.106;11.546;2023-08-20T10:54:57;41.40;28.60
27200;DHT22;14714;48.106;11.546;2023-08-20T10:57:32;40.60;29.40
27200;DHT22;14714;48.106;11.546;2023-08-20T10:59:59;40.20;29.10
27200;DHT22;14714;48.106;11.546;2023-08-20T11:02:27;39.90;30.00
27200;DHT22;14714;48.106;11.546;2023-08-20T11:04:55;39.80;28.60
27200;DHT22;14714;48.106;11.546;2023-08-20T11:07:21;39.70;29.20
27200;DHT22;14714;48.106;11.546;2023-08-20T11:09:48;39.70;29.00
27200;DHT22;14714;48.106;11.546;2023-08-20T11:12:16;39.70;29.90
27200;DHT22;14714;48.106;11.546;2023-08-20T11:14:46;39.80;29.80
27200;DHT22;14714;48.106;11.546;2023-08-20T11:17:13;39.90;29.60
27200;DHT22;14714;48.106;11.546;2023-08-20T11:19:39;39.90;29.70
27200;DHT22;14714;48.106;11.546;2023-08-20T11:22:08;39.90;32.20
27200;DHT22;14714;48.106;11.546;2023-08-20T11:24:34;39.80;31.70
27200;DHT22;14714;48.106;11.546;2023-08-20T11:27:05;39.80;31.90
27200;DHT22;14714;48.106;11.546;2023-08-20T11:29:32;39.60;31.10
27200;DHT22;14714;48.106;11.546;2023-08-20T11:31:59;39.40;30.00
27200;DHT22;14714;48.106;11.546;2023-08-20T11:34:31;39.00;32.00
27200;DHT22;14714;48.106;11.546;2023-08-20T11:36:58;38.90;33.10
27200;DHT22;14714;48.106;11.546;2023-08-20T11:39:24;38.80;33.60
27200;DHT22;14714;48.106;11.546;2023-08-20T11:41:51;38.60;33.70
27200;DHT22;14714;48.106;11.546;2023-08-20T11:44:21;38.50;31.80
27200;DHT22;14714;48.106;11.546;2023-08-20T11:46:48;38.30;34.00
27200;DHT22;14714;48.106;11.546;2023-08-20T11:49:15;38.00;33.60
27200;DHT22;14714;48.106;11.546;2023-08-20T11:51:43;37.80;33.90
27200;DHT22;14714;48.106;11.546;2023-08-20T11:54:12;37.50;35.30
27200;DHT22;14714;48.106;11.546;2023-08-20T11:56:43;37.30;32.60
27200;DHT22;14714;48.106;11.546;2023-08-20T11:59:11;36.90;33.20
27200;DHT22;14714;48.106;11.546;2023-08-20T12:01:38;36.60;35.90
27200;DHT22;14714;48.106;11.546;2023-08-20T12:04:06;36.40;35.10
27200;DHT22;14714;48.106;11.546;2023-08-20T12:06:34;36.10;35.80
27200;DHT22;14714;48.106;11.546;2023-08-20T12:09:02;35.90;34.40
27200;DHT22;14714;48.106;11.546;2023-08-20T12:11:30;35.70;35.60
27200;DHT22;14714;48.106;11.546;2023-08-20T12:13:57;35.40;35.80
27200;DHT22;14714;48.106;11.546;2023-08-20T12:16:24;35.20;37.90
27200;DHT22;14714;48.106;11.546;2023-08-20T12:18:54;35.00;37.60
27200;DHT22;14714;48.106;11.546;2023-08-20T12:21:20;34.90;39.70
27200;DHT22;14714;48.106;11.546;2023-08-20T12:23:47;34.60;39.30
27200;DHT22;14714;48.106;11.546;2023-08-20T12:26:14;34.30;38.40
27200;DHT22;14714;48.106;11.546;2023-08-20T12:28:41;34.10;38.70
27200;DHT22;14714;48.106;11.546;2023-08-20T12:31:08;34.00;39.20
27200;DHT22;14714;48.106;11.546;2023-08-20T12:33:35;33.90;38.90
27200;DHT22;14714;48.106;11.546;2023-08-20T12:36:01;33.80;40.10
27200;DHT22;14714;48.106;11.546;2023-08-20T12:38:28;33.70;39.50
27200;DHT22;14714;48.106;11.546;2023-08-20T12:41:00;33.60;39.70
27200;DHT22;14714;48.106;11.546;2023-08-20T12:43:28;33.50;41.80
27200;DHT22;14714;48.106;11.546;2023-08-20T12:45:54;33.40;41.00
27200;DHT22;14714;48.106;11.546;2023-08-20T12:48:21;33.30;40.80
27200;DHT22;14714;48.106;11.546;2023-08-20T12:50:48;33.20;41.00
27200;DHT22;14714;48.106;11.546;2023-08-20T12:53:15;33.20;42.20
27200;DHT22;14714;48.106;11.546;2023-08-20T12:55:41;33.10;41.60
27200;DHT22;14714;48.106;11.546;2023-08-20T12:58:08;33.10;41.70
27200;DHT22;14714;48.106;11.546;2023-08-20T13:00:35;33.00;41.40
27200;DHT22;14714;48.106;11.546;2023-08-20T13:03:02;32.90;42.10
27200;DHT22;14714;48.106;11.546;2023-08-20T13:05:30;32.80;42.90
27200;DHT22;14714;48.106;11.546;2023-08-20T13:07:57;32.80;41.80
27200;DHT22;14714;48.106;11.546;2023-08-20T13:10:24;32.70;42.10
27200;DHT22;14714;48.106;11.546;2023-08-20T13:12:54;32.70;42.40
27200;DHT22;14714;48.106;11.546;2023-08-20T13:15:21;32.70;42.30
27200;DHT22;14714;48.106;11.546;2023-08-20T13:17:49;32.60;41.80
27200;DHT22;14714;48.106;11.546;2023-08-20T13:20:16;32.50;41.60
27200;DHT22;14714;48.106;11.546;2023-08-20T13:22:51;32.50;42.40
27200;DHT22;14714;48.106;11.546;2023-08-20T13:25:18;32.40;42.20
27200;DHT22;14714;48.106;11.546;2023-08-20T13:27:47;32.40;42.50
27200;DHT22;14714;48.106;11.546;2023-08-20T13:30:14;32.30;43.90
27200;DHT22;14714;48.106;11.546;2023-08-20T13:32:41;32.30;42.00
27200;DHT22;14714;48.106;11.546;2023-08-20T13:35:07;32.20;43.70
27200;DHT22;14714;48.106;11.546;2023-08-20T13:37:35;32.20;43.10
27200;DHT22;14714;48.106;11.546;2023-08-20T13:40:01;32.20;44.10
27200;DHT22;14714;48.106;11.546;2023-08-20T13:42:30;32.20;44.10
27200;DHT22;14714;48.106;11.546;2023-08-20T13:44:57;32.10;43.10
27200;DHT22;14714;48.106;11.546;2023-08-20T13:47:24;32.10;42.70
27200;DHT22;14714;48.106;11.546;2023-08-20T13:49:51;32.10;43.30
27200;DHT22;14714;48.106;11.546;2023-08-20T13:52:18;32.10;42.40
27200;DHT22;14714;48.106;11.546;2023-08-20T13:54:45;32.10;42.90
27200;DHT22;14714;48.106;11.546;2023-08-20T13:57:12;32.00;43.50
27200;DHT22;14714;48.106;11.546;2023-08-20T13:59:39;32.00;41.60
27200;DHT22;14714;48.106;11.546;2023-08-20T14:02:05;32.00;42.60
27200;DHT22;14714;48.106;11.546;2023-08-20T14:04:32;31.90;42.90
27200;DHT22;14714;48.106;11.546;2023-08-20T14:06:59;31.90;42.20
27200;DHT22;14714;48.106;11.546;2023-08-20T14:09:25;31.80;42.80
27200;DHT22;14714;48.106;11.546;2023-08-20T14:11:52;31.80;44.20
27200;DHT22;14714;48.106;11.546;2023-08-20T14:14:19;31.80;43.70
27200;DHT22;14714;48.106;11.546;2023-08-20T14:16:46;31.80;44.50
27200;DHT22;14714;48.106;11.546;2023-08-20T14:19:12;31.80;43.80
27200;DHT22;14714;48.106;11.546;2023-08-20T14:21:39;31.80;44.00
27200;DHT22;14714;48.106;11.546;2023-08-20T14:24:06;31.70;44.30
27200;DHT22;14714;48.106;11.546;2023-08-20T14:26:33;31.70;43.80
27200;DHT22;14714;48.106;11.546;2023-08-20T14:29:00;31.80;44.40
27200;DHT22;14714;48.106;11.546;2023-08-20T14:31:27;31.80;44.40
27200;DHT22;14714;48.106;11.546;2023-08-20T14:33:54;31.70;43.50
27200;DHT22;14714;48.106;11.546;2023-08-20T14:36:21;31.70;43.40
27200;DHT22;14714;48.106;11.546;2023-08-20T14:38:47;31.70;43.30
27200;DHT22;14714;48.106;11.546;2023-08-20T14:41:14;31.70;43.90
27200;DHT22;14714;48.106;11.546;2023-08-20T14:43:41;31.70;44.10
27200;DHT22;14714;48.106;11.546;2023-08-20T14:46:08;31.70;44.00
27200;DHT22;14714;48.106;11.546;2023-08-20T14:48:35;31.70;44.90
27200;DHT22;14714;48.106;11.546;2023-08-20T14:51:06;31.70;44.80
27200;DHT22;14714;48.106;11.546;2023-08-20T14:53:33;31.70;45.00
27200;DHT22;14714;48.106;11.546;2023-08-20T14:56:00;31.60;45.00
27200;DHT22;14714;48.106;11.546;2023-08-20T14:58:27;31.60;44.00
27200;DHT22;14714;48.106;11.546;2023-08-20T15:00:58;31.60;43.90
27200;DHT22;14714;48.106;11.546;2023-08-20T15:03:25;31.60;45.00
27200;DHT22;14714;48.106;11.546;2023-08-20T15:05:51;31.60;45.10
27200;DHT22;14714;48.106;11.546;2023-08-20T15:08:18;31.50;45.80
27200;DHT22;14714;48.106;11.546;2023-08-20T15:10:55;31.50;45.60
27200;DHT22;14714;48.106;11.546;2023-08-20T15:13:22;31.50;45.50
27200;DHT22;14714;48.106;11.546;2023-08-20T15:15:52;31.50;46.00
27200;DHT22;14714;48.106;11.546;2023-08-20T15:18:22;31.50;45.40
27200;DHT22;14714;48.106;11.546;2023-08-20T15:20:55;31.50;45.30
27200;DHT22;14714;48.106;11.546;2023-08-20T15:23:23;31.40;45.50